createdAt,value
2022-09-28T00:00:39.341Z,98568.29
2022-09-28T00:02:43.956Z,98567.09
2022-09-28T00:04:48.493Z,98565.27
2022-09-28T00:06:52.777Z,98559.75
2022-09-28T00:08:57.112Z,98557.61
2022-09-28T00:11:01.441Z,98552.38
2022-09-28T00:13:05.807Z,98549.82
2022-09-28T00:15:10.091Z,98552.23
2022-09-28T00:17:14.430Z,98547.94
2022-09-28T00:19:19.067Z,98547.31
2022-09-28T00:21:23.315Z,98546.05
2022-09-28T00:23:27.614Z,98535.84
2022-09-28T00:25:31.934Z,98532.72
2022-09-28T00:27:36.221Z,98529.16
2022-09-28T00:29:40.541Z,98528.66
2022-09-28T00:31:45.126Z,98520.14
2022-09-28T00:33:49.527Z,98520.75
2022-09-28T00:35:53.849Z,98519.21
2022-09-28T00:37:58.264Z,98518.15
2022-09-28T00:40:02.566Z,98521.49
2022-09-28T00:42:06.850Z,98520.56
2022-09-28T00:44:11.159Z,98521.23
2022-09-28T00:46:15.573Z,98516.8
2022-09-28T00:48:20.297Z,98519.63
2022-09-28T00:50:24.666Z,98519.14
2022-09-28T00:52:28.990Z,98520.33
2022-09-28T00:54:33.323Z,98518.92
2022-09-28T00:56:37.643Z,98518.63
2022-09-28T00:58:41.925Z,98512.91
2022-09-28T01:00:46.434Z,98515.35
2022-09-28T01:02:50.886Z,98516.98
2022-09-28T01:04:55.199Z,98515.38
2022-09-28T01:06:59.556Z,98511.48
2022-09-28T01:09:03.814Z,98512.16
2022-09-28T01:11:08.106Z,98511.17
2022-09-28T01:13:12.524Z,98513.11
2022-09-28T01:15:16.865Z,98510.41
2022-09-28T01:17:21.179Z,98508.05
2022-09-28T01:19:25.499Z,98506.52
2022-09-28T01:21:29.788Z,98508.48
2022-09-28T01:23:34.117Z,98505.87
2022-09-28T01:25:38.439Z,98506.73
2022-09-28T01:27:42.732Z,98510.99
2022-09-28T01:29:47.094Z,98503.5
2022-09-28T01:31:51.627Z,98503.03
2022-09-28T01:33:56.105Z,98500.3
2022-09-28T01:36:00.392Z,98499.58
2022-09-28T01:38:04.728Z,98493.38
2022-09-28T01:40:09.037Z,98496.98
2022-09-28T01:42:13.327Z,98494.27
2022-09-28T01:44:17.668Z,98493.93
2022-09-28T01:46:22.081Z,98490.72
2022-09-28T01:48:26.379Z,98490.41
2022-09-28T01:50:30.720Z,98490.38
2022-09-28T01:52:35.026Z,98491.05
2022-09-28T01:54:39.389Z,98493.29
2022-09-28T01:56:43.667Z,98488.09
2022-09-28T01:58:47.978Z,98490.47
2022-09-28T02:00:52.435Z,98492.33
2022-09-28T02:02:56.883Z,98497.12
2022-09-28T02:05:01.337Z,98498.39
2022-09-28T02:07:05.650Z,98500.71
2022-09-28T02:09:10.060Z,98496.73
2022-09-28T02:11:14.500Z,98491.8
2022-09-28T02:13:18.858Z,98490.72
2022-09-28T02:15:23.138Z,98492.71
2022-09-28T02:17:27.478Z,98489.34
2022-09-28T02:19:31.773Z,98495.63
2022-09-28T02:21:36.069Z,98493.13
2022-09-28T02:23:40.404Z,98493.3
2022-09-28T02:25:44.701Z,98492.39
2022-09-28T02:27:49.022Z,98493.84
2022-09-28T02:29:53.329Z,98495.17
2022-09-28T02:31:57.761Z,98493.04
2022-09-28T02:34:02.147Z,98490.88
2022-09-28T02:36:06.427Z,98488.7
2022-09-28T02:38:10.888Z,98486
2022-09-28T02:40:15.284Z,98484.3
2022-09-28T02:42:19.731Z,98483.57
2022-09-28T02:44:24.050Z,98487.09
2022-09-28T02:46:28.389Z,98487.3
2022-09-28T02:49:20.139Z,98486.06
2022-09-28T02:51:25.901Z,98484.91
2022-09-28T02:53:30.190Z,98484.17
2022-09-28T02:55:34.539Z,98482.59
2022-09-28T02:57:38.811Z,98481.55
2022-09-28T02:59:43.139Z,98477.86
2022-09-28T03:01:47.649Z,98483.88
2022-09-28T03:03:52.139Z,98486.56
2022-09-28T03:05:56.434Z,98487.17
2022-09-28T03:08:00.722Z,98489.94
2022-09-28T03:10:05.060Z,98487.98
2022-09-28T03:12:09.384Z,98493.68
2022-09-28T03:14:13.704Z,98495.78
2022-09-28T03:16:18.190Z,98494.53
2022-09-28T03:18:22.691Z,98493.7
2022-09-28T03:20:27.021Z,98495.79
2022-09-28T03:22:31.361Z,98494.45
2022-09-28T03:24:35.701Z,98497.2
2022-09-28T03:26:40.008Z,98496.86
2022-09-28T03:28:44.334Z,98496.81
2022-09-28T03:30:48.643Z,98496.98
2022-09-28T03:32:52.951Z,98498.23
2022-09-28T03:34:57.268Z,98499.22
2022-09-28T03:37:01.585Z,98493.27
2022-09-28T03:39:05.857Z,98494.51
2022-09-28T03:41:10.201Z,98495.36
2022-09-28T03:43:14.469Z,98489.41
2022-09-28T03:45:18.739Z,98493.44
2022-09-28T03:47:23.049Z,98494.11
2022-09-28T03:49:27.327Z,98493.38
2022-09-28T03:51:31.694Z,98491.61
2022-09-28T03:53:36.014Z,98488.45
2022-09-28T03:55:40.354Z,98490.97
2022-09-28T03:57:44.635Z,98491.08
2022-09-28T03:59:48.962Z,98489.39
2022-09-28T04:01:53.516Z,98487.7
2022-09-28T04:03:57.990Z,98486.95
2022-09-28T04:06:02.330Z,98493.52
2022-09-28T04:08:06.626Z,98493.82
2022-09-28T04:10:10.957Z,98490.84
2022-09-28T04:12:15.282Z,98493.02
2022-09-28T04:14:19.601Z,98493.75
2022-09-28T04:16:24.096Z,98491.7
2022-09-28T04:18:28.525Z,98492.16
2022-09-28T04:20:32.886Z,98488.91
2022-09-28T04:22:37.191Z,98484.63
2022-09-28T04:24:41.467Z,98480.3
2022-09-28T04:26:45.810Z,98478.48
2022-09-28T04:28:50.096Z,98475.34
2022-09-28T04:30:54.397Z,98478.53
2022-09-28T04:32:58.740Z,98477.15
2022-09-28T04:35:03.056Z,98470.31
2022-09-28T04:37:07.388Z,98469.78
2022-09-28T04:39:11.664Z,98468.7
2022-09-28T04:41:15.977Z,98469.23
2022-09-28T04:43:20.324Z,98470.13
2022-09-28T04:45:24.634Z,98469.84
2022-09-28T04:47:28.999Z,98469.22
2022-09-28T04:49:33.303Z,98473.7
2022-09-28T04:51:37.599Z,98470.57
2022-09-28T04:53:41.925Z,98467.59
2022-09-28T04:55:46.294Z,98473.64
2022-09-28T04:57:50.561Z,98470.11
2022-09-28T04:59:54.922Z,98471.63
2022-09-28T05:01:59.249Z,98477.13
2022-09-28T05:04:03.633Z,98476.95
2022-09-28T05:06:07.936Z,98475.94
2022-09-28T05:08:12.270Z,98477.38
2022-09-28T05:10:16.694Z,98476.1
2022-09-28T05:12:20.965Z,98474.36
2022-09-28T05:14:25.249Z,98475.41
2022-09-28T05:16:29.791Z,98471.94
2022-09-28T05:18:34.283Z,98476
2022-09-28T05:20:38.622Z,98471.23
2022-09-28T05:22:42.926Z,98471.02
2022-09-28T05:24:47.259Z,98471.83
2022-09-28T05:26:51.556Z,98470.88
2022-09-28T05:28:55.869Z,98468.41
2022-09-28T05:31:00.194Z,98470.44
2022-09-28T05:33:04.501Z,98470.9
2022-09-28T05:35:08.794Z,98470.51
2022-09-28T05:37:13.121Z,98472.99
2022-09-28T05:39:17.845Z,98471.68
2022-09-28T05:41:22.273Z,98468.79
2022-09-28T05:43:26.627Z,98466.98
2022-09-28T05:45:31.104Z,98466.38
2022-09-28T05:47:35.503Z,98462.94
2022-09-28T05:49:39.784Z,98461.55
2022-09-28T05:51:44.099Z,98459.55
2022-09-28T05:53:48.356Z,98455.17
2022-09-28T05:55:52.654Z,98455.13
2022-09-28T05:57:56.996Z,98454.09
2022-09-28T06:00:01.346Z,98454.42
2022-09-28T06:02:05.861Z,98458.12
2022-09-28T06:04:10.357Z,98455.39
2022-09-28T06:06:14.718Z,98454.55
2022-09-28T06:08:19.044Z,98458.01
2022-09-28T06:10:23.340Z,98457.05
2022-09-28T06:12:27.639Z,98458.98
2022-09-28T06:14:31.918Z,98457.33
2022-09-28T06:16:43.061Z,98456.98
2022-09-28T06:18:48.035Z,98457.34
2022-09-28T06:20:52.350Z,98460.02
2022-09-28T06:22:56.639Z,98463.7
2022-09-28T06:25:00.981Z,98461.88
2022-09-28T06:27:05.266Z,98464.23
2022-09-28T06:29:09.579Z,98459.47
2022-09-28T06:31:14.081Z,98458.79
2022-09-28T06:33:18.549Z,98461.63
2022-09-28T06:35:22.813Z,98455.66
2022-09-28T06:37:27.052Z,98453.7
2022-09-28T06:39:31.310Z,98451.82
2022-09-28T06:41:35.526Z,98449.81
2022-09-28T06:43:39.811Z,98451.83
2022-09-28T06:45:44.320Z,98445.63
2022-09-28T06:47:48.644Z,98444.62
2022-09-28T06:49:52.945Z,98438.3
2022-09-28T06:51:57.265Z,98426.73
2022-09-28T06:54:01.587Z,98428.13
2022-09-28T06:56:05.902Z,98423.03
2022-09-28T06:58:10.220Z,98418.23
2022-09-28T07:00:14.526Z,98416.42
2022-09-28T07:02:19.008Z,98414.38
2022-09-28T07:04:23.461Z,98421.02
2022-09-28T07:06:27.874Z,98414.91
2022-09-28T07:08:32.186Z,98410.72
2022-09-28T07:10:36.597Z,98409.76
2022-09-28T07:12:40.921Z,98414.31
2022-09-28T07:14:49.574Z,98414.09
2022-09-28T07:17:14.543Z,98415.06
2022-09-28T07:19:19.359Z,98417.16
2022-09-28T07:21:31.206Z,98424.38
2022-09-28T07:23:53.098Z,98431.59
2022-09-28T07:25:58.097Z,98431.61
2022-09-28T07:28:02.416Z,98432.22
2022-09-28T07:30:06.750Z,98439.77
2022-09-28T07:32:11.087Z,98434.89
2022-09-28T07:34:15.575Z,98437.33
2022-09-28T07:36:20.010Z,98434.95
2022-09-28T07:38:24.368Z,98434.88
2022-09-28T07:40:28.866Z,98432.98
2022-09-28T07:42:33.258Z,98432.47
2022-09-28T07:44:37.559Z,98426.61
2022-09-28T07:46:42.212Z,98427.62
2022-09-28T07:48:46.617Z,98421.66
2022-09-28T07:50:50.956Z,98423.58
2022-09-28T07:52:55.259Z,98422.21
2022-09-28T07:55:06.751Z,98423.91
2022-09-28T07:57:11.483Z,98427.09
2022-09-28T07:59:15.946Z,98427.6
2022-09-28T08:01:20.542Z,98427.28
2022-09-28T08:03:24.963Z,98421.72
2022-09-28T08:05:29.283Z,98424.78
2022-09-28T08:07:33.633Z,98427.8
2022-09-28T08:09:38.251Z,98427.05
2022-09-28T08:11:42.571Z,98422.39
2022-09-28T08:13:46.865Z,98427.2
2022-09-28T08:15:51.199Z,98425.19
2022-09-28T08:18:00.476Z,98422.83
2022-09-28T08:20:07.096Z,98426.34
2022-09-28T08:22:11.444Z,98430.49
2022-09-28T08:24:15.940Z,98432.59
2022-09-28T08:26:20.238Z,98423.95
2022-09-28T08:28:24.566Z,98422.81
2022-09-28T08:30:29.053Z,98414.98
2022-09-28T08:32:33.512Z,98415.22
2022-09-28T08:34:37.817Z,98407.61
2022-09-28T08:36:42.092Z,98406.43
2022-09-28T08:38:46.425Z,98410.7
2022-09-28T08:40:50.878Z,98411.61
2022-09-28T08:42:55.283Z,98409.1
2022-09-28T08:44:59.717Z,98401.72
2022-09-28T08:47:04.034Z,98400.55
2022-09-28T08:49:26.105Z,98406.63
2022-09-28T08:51:30.801Z,98407.14
2022-09-28T08:53:35.147Z,98401.86
2022-09-28T08:55:39.461Z,98403.63
2022-09-28T08:57:43.771Z,98407.89
2022-09-28T08:59:48.080Z,98398.72
2022-09-28T09:01:56.439Z,98402.42
2022-09-28T09:04:02.023Z,98398.17
2022-09-28T09:06:06.359Z,98403.52
2022-09-28T09:08:10.686Z,98391.48
2022-09-28T09:10:15.042Z,98389.5
2022-09-28T09:12:19.346Z,98396.03
2022-09-28T09:14:23.658Z,98391.08
2022-09-28T09:16:28.145Z,98402.59
2022-09-28T09:18:32.579Z,98388.5
2022-09-28T09:20:36.901Z,98385.82
2022-09-28T09:22:41.216Z,98383.71
2022-09-28T09:24:45.539Z,98380.87
2022-09-28T09:26:49.829Z,98379.79
2022-09-28T09:28:54.154Z,98391.25
2022-09-28T09:30:58.579Z,98389.5
2022-09-28T09:33:02.985Z,98390.29
2022-09-28T09:35:07.449Z,98383.75
2022-09-28T09:37:11.745Z,98384.55
2022-09-28T09:39:16.071Z,98382.01
2022-09-28T09:41:20.395Z,98378.99
2022-09-28T09:43:31.520Z,98376.95
2022-09-28T09:45:36.538Z,98367.3
2022-09-28T09:47:41.065Z,98366.63
2022-09-28T09:49:45.362Z,98368.83
2022-09-28T09:51:49.814Z,98371.52
2022-09-28T09:53:54.106Z,98375.5
2022-09-28T09:55:58.673Z,98371.42
2022-09-28T09:58:02.979Z,98370.08
2022-09-28T10:00:07.310Z,98376.67
2022-09-28T10:02:13.159Z,98368.73
2022-09-28T10:04:17.658Z,98371.9
2022-09-28T10:06:22.012Z,98374.92
2022-09-28T10:08:26.309Z,98383.16
2022-09-28T10:10:30.615Z,98380.87
2022-09-28T10:12:34.951Z,98371.33
2022-09-28T10:14:39.245Z,98372.25
2022-09-28T10:16:43.775Z,98372.02
2022-09-28T10:18:48.224Z,98372.48
2022-09-28T10:20:52.536Z,98369.42
2022-09-28T10:22:56.858Z,98370.15
2022-09-28T10:25:01.191Z,98367.53
2022-09-28T10:27:05.476Z,98367.3
2022-09-28T10:29:09.842Z,98363.91
2022-09-28T10:31:14.254Z,98371.73
2022-09-28T10:33:18.623Z,98375.43
2022-09-28T10:35:22.926Z,98377.93
2022-09-28T10:37:27.224Z,98390.08
2022-09-28T10:39:31.561Z,98376.91
2022-09-28T10:41:35.871Z,98392
2022-09-28T10:43:40.247Z,98394.72
2022-09-28T10:45:44.633Z,98396.13
2022-09-28T10:47:49.087Z,98389.73
2022-09-28T10:49:53.424Z,98391.95
2022-09-28T10:51:57.749Z,98391.48
2022-09-28T10:54:02.131Z,98402.44
2022-09-28T10:56:06.459Z,98408.73
2022-09-28T10:58:10.741Z,98422.52
2022-09-28T11:00:15.072Z,98412.97
2022-09-28T11:02:19.567Z,98421.31
2022-09-28T11:04:24.057Z,98414.39
2022-09-28T11:06:28.423Z,98421.55
2022-09-28T11:08:32.721Z,98417.63
2022-09-28T11:10:37.138Z,98409.73
2022-09-28T11:12:41.445Z,98407.85
2022-09-28T11:14:45.765Z,98398.33
2022-09-28T11:16:50.349Z,98390.31
2022-09-28T11:18:54.721Z,98390.21
2022-09-28T11:20:59.272Z,98390.27
2022-09-28T11:23:03.574Z,98391.86
2022-09-28T11:25:07.875Z,98401.45
2022-09-28T11:27:12.214Z,98393.34
2022-09-28T11:29:16.799Z,98395.38
2022-09-28T11:31:21.301Z,98391.23
2022-09-28T11:33:25.602Z,98388.16
2022-09-28T11:35:29.950Z,98391.45
2022-09-28T11:37:34.368Z,98388.23
2022-09-28T11:39:38.670Z,98388.63
2022-09-28T11:41:43.027Z,98391.34
2022-09-28T11:43:47.408Z,98392.58
2022-09-28T11:45:52.065Z,98391.56
2022-09-28T11:47:56.534Z,98389.73
2022-09-28T11:50:00.909Z,98389.62
2022-09-28T11:52:05.283Z,98391.72
2022-09-28T11:54:09.687Z,98390.42
2022-09-28T11:56:14.101Z,98391.83
2022-09-28T11:58:18.455Z,98389.96
2022-09-28T12:00:22.815Z,98392.34
2022-09-28T12:02:27.380Z,98390.97
2022-09-28T12:04:32.107Z,98388.59
2022-09-28T12:06:36.454Z,98388.19
2022-09-28T12:08:40.831Z,98386.55
2022-09-28T12:10:46.724Z,98385.19
2022-09-28T12:12:51.027Z,98384.22
2022-09-28T12:14:55.393Z,98377.52
2022-09-28T12:17:09.373Z,98374.63
2022-09-28T12:19:14.038Z,98372.77
2022-09-28T12:21:18.465Z,98366.59
2022-09-28T12:23:22.844Z,98362.89
2022-09-28T12:25:27.191Z,98365.09
2022-09-28T12:27:31.592Z,98366.73
2022-09-28T12:29:35.934Z,98360.59
2022-09-28T12:31:40.301Z,98364.02
2022-09-28T12:33:44.635Z,98366.97
2022-09-28T12:35:49.003Z,98363.84
2022-09-28T12:37:55.478Z,98359.76
2022-09-28T12:40:00.352Z,98357.89
2022-09-28T12:42:05.407Z,98355.78
2022-09-28T12:44:09.741Z,98351.06
2022-09-28T12:46:14.427Z,98347.38
2022-09-28T12:48:18.879Z,98345.77
2022-09-28T12:50:45.684Z,98333.91
2022-09-28T12:53:04.213Z,98329.52
2022-09-28T12:55:08.631Z,98326.9
2022-09-28T12:57:12.995Z,98324.29
2022-09-28T12:59:17.682Z,98320.77
2022-09-28T13:01:22.450Z,98314.38
2022-09-28T13:03:26.979Z,98315.89
2022-09-28T13:05:31.354Z,98318.67
2022-09-28T13:07:35.686Z,98317.19
2022-09-28T13:09:40.024Z,98319.91
2022-09-28T13:11:44.343Z,98314.05
2022-09-28T13:13:48.640Z,98310.59
2022-09-28T13:15:53.115Z,98310.54
2022-09-28T13:17:57.521Z,98313.77
2022-09-28T13:20:01.954Z,98316.48
2022-09-28T13:22:06.263Z,98316.27
2022-09-28T13:24:33.588Z,98320.41
2022-09-28T13:26:38.005Z,98320.75
2022-09-28T13:28:42.309Z,98323.53
2022-09-28T13:30:46.955Z,98319.96
2022-09-28T13:32:51.426Z,98322.85
2022-09-28T13:34:55.732Z,98319.97
2022-09-28T13:37:00.021Z,98313.73
2022-09-28T13:39:04.393Z,98315.56
2022-09-28T13:41:08.724Z,98311.02
2022-09-28T13:43:16.270Z,98311.58
2022-09-28T13:45:23.301Z,98314.59
2022-09-28T13:47:27.636Z,98310
2022-09-28T13:49:31.934Z,98310.11
2022-09-28T13:51:36.269Z,98314.01
2022-09-28T13:53:43.246Z,98314.75
2022-09-28T13:55:47.587Z,98318.78
2022-09-28T13:57:51.899Z,98317.66
2022-09-28T13:59:56.226Z,98313.19
2022-09-28T14:02:07.356Z,98312.81
2022-09-28T14:04:12.170Z,98305.11
2022-09-28T14:08:20.832Z,98300
2022-09-28T14:10:25.244Z,98298.83
2022-09-28T14:12:29.495Z,98297.53
2022-09-28T14:14:33.820Z,98301.47
2022-09-28T14:16:38.102Z,98296.66
2022-09-28T14:18:42.423Z,98291.59
2022-09-28T14:20:46.769Z,98286.37
2022-09-28T14:22:51.135Z,98282.35
2022-09-28T14:24:55.481Z,98285.53
2022-09-28T14:26:59.889Z,98279.59
2022-09-28T14:29:09.833Z,98281.13
2022-09-28T14:31:14.722Z,98287.16
2022-09-28T14:33:19.096Z,98290.23
2022-09-28T14:35:23.412Z,98291.41
2022-09-28T14:37:27.724Z,98286.76
2022-09-28T14:39:32.097Z,98285.73
2022-09-28T14:41:36.922Z,98285.47
2022-09-28T14:43:41.223Z,98289.73
2022-09-28T14:45:45.567Z,98282.58
2022-09-28T14:47:49.958Z,98275.31
2022-09-28T14:49:54.347Z,98271.47
2022-09-28T14:51:58.688Z,98269.59
2022-09-28T14:54:03.017Z,98267.62
2022-09-28T14:56:07.349Z,98270.64
2022-09-28T14:58:11.694Z,98271.53
2022-09-28T15:00:15.993Z,98270.06
2022-09-28T15:02:20.287Z,98266.11
2022-09-28T15:04:25.266Z,98267.08
2022-09-28T15:06:29.856Z,98262.77
2022-09-28T15:08:34.179Z,98263.57
2022-09-28T15:10:41.267Z,98265.5
2022-09-28T15:12:45.536Z,98265.27
2022-09-28T15:14:49.878Z,98266.24
2022-09-28T15:16:54.200Z,98277.76
2022-09-28T15:18:58.504Z,98276.86
2022-09-28T15:21:02.802Z,98275.45
2022-09-28T15:23:07.095Z,98278.71
2022-09-28T15:25:11.429Z,98276.13
2022-09-28T15:27:15.778Z,98276.13
2022-09-28T15:29:20.111Z,98278.3
2022-09-28T15:31:24.598Z,98274.38
2022-09-28T15:33:29.055Z,98271.95
2022-09-28T15:35:33.453Z,98277.51
2022-09-28T15:37:41.535Z,98281.83
2022-09-28T15:39:45.843Z,98285.75
2022-09-28T15:41:50.171Z,98291.77
2022-09-28T15:43:54.469Z,98285.87
2022-09-28T15:45:58.914Z,98287.4
2022-09-28T15:48:03.299Z,98285.3
2022-09-28T15:50:07.625Z,98291.38
2022-09-28T15:52:11.948Z,98297.97
2022-09-28T15:54:16.455Z,98299.94
2022-09-28T15:56:21.047Z,98309.48
2022-09-28T15:58:25.333Z,98310.67
2022-09-28T16:00:29.659Z,98319.14
2022-09-28T16:02:34.184Z,98318.02
2022-09-28T16:04:38.637Z,98319.16
2022-09-28T16:06:43.004Z,98322.33
2022-09-28T16:08:47.311Z,98329.33
2022-09-28T16:10:51.686Z,98324.91
2022-09-28T16:12:56.005Z,98324
2022-09-28T16:15:00.342Z,98331.11
2022-09-28T16:17:04.741Z,98333.38
2022-09-28T16:19:09.107Z,98331.17
2022-09-28T16:21:13.456Z,98337.09
2022-09-28T16:23:17.838Z,98337.17
2022-09-28T16:25:22.141Z,98333.81
2022-09-28T16:27:26.520Z,98331.78
2022-09-28T16:29:30.886Z,98328.95
2022-09-28T16:31:35.677Z,98325.8
2022-09-28T16:33:40.230Z,98329.66
2022-09-28T16:35:44.522Z,98331.2
2022-09-28T16:37:48.850Z,98332.14
2022-09-28T16:39:53.161Z,98333.22
2022-09-28T16:41:57.489Z,98337.27
2022-09-28T16:44:01.856Z,98335.38
2022-09-28T16:46:06.311Z,98336.86
2022-09-28T16:48:10.774Z,98337.42
2022-09-28T16:50:15.088Z,98342.33
2022-09-28T16:52:19.412Z,98346.58
2022-09-28T16:54:23.721Z,98347.66
2022-09-28T16:56:28.029Z,98350.68
2022-09-28T16:58:32.390Z,98356.25
2022-09-28T17:00:36.720Z,98354.27
2022-09-28T17:02:48.081Z,98363.13
2022-09-28T17:04:52.571Z,98361.55
2022-09-28T17:06:56.880Z,98364.84
2022-09-28T17:09:01.233Z,98362.57
2022-09-28T17:11:25.435Z,98363.65
2022-09-28T17:13:29.844Z,98373.09
2022-09-28T17:15:34.377Z,98373.59
2022-09-28T17:17:38.988Z,98371.55
2022-09-28T17:19:43.347Z,98374.17
2022-09-28T17:21:47.696Z,98378.73
2022-09-28T17:23:52.133Z,98378.63
2022-09-28T17:25:56.508Z,98381.19
2022-09-28T17:28:00.795Z,98387.56
2022-09-28T17:30:05.185Z,98386.7
2022-09-28T17:32:09.485Z,98394.2
2022-09-28T17:34:13.972Z,98396.28
2022-09-28T17:36:18.421Z,98404.33
2022-09-28T17:38:22.780Z,98404.39
2022-09-28T17:40:27.241Z,98410.67
2022-09-28T17:42:31.922Z,98411.96
2022-09-28T17:44:36.329Z,98415.92
2022-09-28T17:46:40.893Z,98417.38
2022-09-28T17:48:45.434Z,98420.14
2022-09-28T17:50:49.770Z,98422.92
2022-09-28T17:52:54.080Z,98424.27
2022-09-28T17:54:58.429Z,98426.88
2022-09-28T17:57:02.735Z,98433.16
2022-09-28T17:59:07.013Z,98430.17
2022-09-28T18:01:11.528Z,98426.88
2022-09-28T18:03:15.918Z,98430.41
2022-09-28T18:05:20.238Z,98437.97
2022-09-28T18:07:24.530Z,98441.8
2022-09-28T18:09:28.822Z,98434.75
2022-09-28T18:11:33.180Z,98440.37
2022-09-28T18:13:37.552Z,98441.02
2022-09-28T18:15:42.015Z,98445.25
2022-09-28T18:17:46.469Z,98451.3
2022-09-28T18:19:50.787Z,98454.24
2022-09-28T18:21:55.089Z,98457.81
2022-09-28T18:23:59.445Z,98463.99
2022-09-28T18:26:04.149Z,98467.73
2022-09-28T18:28:08.591Z,98467.63
2022-09-28T18:30:12.909Z,98466.48
2022-09-28T18:32:17.259Z,98472.36
2022-09-28T18:34:21.627Z,98471.78
2022-09-28T18:36:25.953Z,98478.3
2022-09-28T18:38:30.270Z,98479.72
2022-09-28T18:40:34.717Z,98475.45
2022-09-28T18:42:39.162Z,98477.84
2022-09-28T18:44:43.580Z,98479.92
2022-09-28T18:46:48.044Z,98483.28
2022-09-28T18:48:52.529Z,98489.08
2022-09-28T18:50:56.827Z,98493.2
2022-09-28T18:53:01.174Z,98501.33
2022-09-28T18:55:05.535Z,98497.34
2022-09-28T18:57:09.898Z,98499.52
2022-09-28T18:59:14.500Z,98506.03
2022-09-28T19:01:34.848Z,98509.95
2022-09-28T19:03:39.607Z,98512.89
2022-09-28T19:05:43.927Z,98511.2
2022-09-28T19:07:48.238Z,98513.1
2022-09-28T19:09:52.567Z,98511.83
2022-09-28T19:11:56.944Z,98513.81
2022-09-28T19:14:01.296Z,98516.89
2022-09-28T19:16:05.790Z,98515.14
2022-09-28T19:18:10.219Z,98516.49
2022-09-28T19:20:14.517Z,98515.23
2022-09-28T19:22:18.871Z,98519.95
2022-09-28T19:24:23.165Z,98521.14
2022-09-28T19:26:27.535Z,98522.33
2022-09-28T19:28:31.961Z,98524.38
2022-09-28T19:30:36.345Z,98530.33
2022-09-28T19:32:40.793Z,98523.41
2022-09-28T19:34:45.160Z,98521.11
2022-09-28T19:36:49.468Z,98523.44
2022-09-28T19:38:53.954Z,98523.61
2022-09-28T19:40:58.449Z,98521.84
2022-09-28T19:43:02.889Z,98524.16
2022-09-28T19:45:07.218Z,98525.11
2022-09-28T19:47:11.532Z,98521.3
2022-09-28T19:49:15.853Z,98524.31
2022-09-28T19:51:20.212Z,98528.07
2022-09-28T19:53:24.574Z,98532.75
2022-09-28T19:55:28.970Z,98534.22
2022-09-28T19:57:33.317Z,98538.3
2022-09-28T19:59:37.968Z,98538.44
2022-09-28T20:01:42.412Z,98545.03
2022-09-28T20:03:46.885Z,98551.59
2022-09-28T20:05:51.303Z,98556.3
2022-09-28T20:07:55.694Z,98560.64
2022-09-28T20:10:00.242Z,98560.03
2022-09-28T20:12:04.550Z,98564.16
2022-09-28T20:14:10.822Z,98570.08
2022-09-28T20:16:15.285Z,98572.23
2022-09-28T20:18:19.714Z,98577.3
2022-09-28T20:20:24.036Z,98577.28
2022-09-28T20:22:28.349Z,98576.58
2022-09-28T20:24:33.027Z,98582.59
2022-09-28T20:26:37.376Z,98585.84
2022-09-28T20:28:41.748Z,98595.66
2022-09-28T20:30:46.140Z,98598.67
2022-09-28T20:32:50.878Z,98597.31
2022-09-28T20:34:55.203Z,98597.44
2022-09-28T20:36:59.535Z,98599.32
2022-09-28T20:39:03.889Z,98601.09
2022-09-28T20:41:08.265Z,98605.47
2022-09-28T20:43:12.653Z,98607.14
2022-09-28T20:45:16.974Z,98614.59
2022-09-28T20:47:21.347Z,98617.25
2022-09-28T20:49:25.701Z,98624.05
2022-09-28T20:51:30.039Z,98620.39
2022-09-28T20:53:34.415Z,98626.17
2022-09-28T20:55:38.780Z,98630.83
2022-09-28T20:57:43.162Z,98634.95
2022-09-28T20:59:54.634Z,98637.83
2022-09-28T21:01:59.358Z,98639.49
2022-09-28T21:04:03.808Z,98645.66
2022-09-28T21:06:13.086Z,98645.03
2022-09-28T21:08:17.383Z,98649.44
2022-09-28T21:10:21.695Z,98650.52
2022-09-28T21:12:26.049Z,98650.47
2022-09-28T21:14:30.352Z,98652.31
2022-09-28T21:16:34.645Z,98651.14
2022-09-28T21:18:38.956Z,98654.2
2022-09-28T21:20:43.263Z,98654.72
2022-09-28T21:22:47.577Z,98657.41
2022-09-28T21:24:51.934Z,98657.76
2022-09-28T21:26:56.345Z,98663.55
2022-09-28T21:29:00.647Z,98661.88
2022-09-28T21:31:05.117Z,98663.69
2022-09-28T21:33:09.583Z,98662.91
2022-09-28T21:35:13.957Z,98667.38
2022-09-28T21:37:18.336Z,98667.78
2022-09-28T21:39:22.671Z,98666.17
2022-09-28T21:41:27.004Z,98667.59
2022-09-28T21:43:31.351Z,98670.24
2022-09-28T21:45:36.046Z,98674.77
2022-09-28T21:47:40.700Z,98673.69
2022-09-28T21:49:44.998Z,98676.5
2022-09-28T21:51:49.386Z,98679.76
2022-09-28T21:53:53.736Z,98683.84
2022-09-28T21:55:58.101Z,98687.73
2022-09-28T21:58:02.465Z,98687.27
2022-09-28T22:00:06.828Z,98687.7
2022-09-28T22:02:11.149Z,98685.52
2022-09-28T22:04:15.692Z,98690.02
2022-09-28T22:06:20.118Z,98690.32
2022-09-28T22:08:24.465Z,98694.3
2022-09-28T22:10:28.783Z,98696.84
2022-09-28T22:12:33.111Z,98697.77
2022-09-28T22:14:37.411Z,98699.91
2022-09-28T22:16:41.803Z,98696.41
2022-09-28T22:18:46.143Z,98700.58
2022-09-28T22:20:50.531Z,98698.39
2022-09-28T22:22:54.909Z,98698.93
2022-09-28T22:24:59.223Z,98697.11
2022-09-28T22:27:03.570Z,98696.52
2022-09-28T22:29:07.896Z,98697.76
2022-09-28T22:31:12.347Z,98700.32
2022-09-28T22:33:16.841Z,98697.93
2022-09-28T22:35:21.274Z,98700.02
2022-09-28T22:37:25.609Z,98698.3
2022-09-28T22:39:32.203Z,98694.22
2022-09-28T22:41:41.232Z,98699.59
2022-09-28T22:43:45.538Z,98700.63
2022-09-28T22:45:49.869Z,98699.47
2022-09-28T22:47:54.198Z,98701.36
2022-09-28T22:49:58.513Z,98702.64
2022-09-28T22:52:02.840Z,98702.27
2022-09-28T22:54:07.136Z,98703.16
2022-09-28T22:56:18.876Z,98706.14
2022-09-28T22:58:23.472Z,98709.03
2022-09-28T23:00:27.770Z,98712.59
2022-09-28T23:02:32.270Z,98712.88
2022-09-28T23:04:36.612Z,98714.59
2022-09-28T23:06:40.922Z,98718.53
2022-09-28T23:08:45.229Z,98724.79
2022-09-28T23:10:49.506Z,98719.35
2022-09-28T23:12:53.801Z,98722.13
2022-09-28T23:14:58.111Z,98726.38
2022-09-28T23:17:02.447Z,98720.55
2022-09-28T23:19:06.724Z,98727.23
2022-09-28T23:21:11.064Z,98723.62
2022-09-28T23:23:15.373Z,98726.73
2022-09-28T23:25:19.770Z,98723.35
2022-09-28T23:27:24.094Z,98724.66
2022-09-28T23:29:28.375Z,98728.61
2022-09-28T23:31:32.884Z,98728.47
2022-09-28T23:33:37.383Z,98724.25
2022-09-28T23:35:41.699Z,98724.2
2022-09-28T23:37:45.983Z,98727.56
2022-09-28T23:39:50.293Z,98728.13
2022-09-28T23:41:54.605Z,98726.34
2022-09-28T23:43:58.890Z,98732.2
2022-09-28T23:46:03.321Z,98726.3
2022-09-28T23:48:07.728Z,98725.69
2022-09-28T23:50:12.060Z,98721
2022-09-28T23:52:16.352Z,98719.31
2022-09-28T23:54:20.666Z,98723.55
2022-09-28T23:56:25.054Z,98719.83
2022-09-28T23:58:29.322Z,98728.54
